createdAt,value
2018-11-14T00:00:45.950Z,7.30
2018-11-14T00:03:14.640Z,7.25
2018-11-14T00:05:43.144Z,7.14
2018-11-14T00:08:11.878Z,7.07
2018-11-14T00:10:40.448Z,7.02
2018-11-14T00:13:09.032Z,6.97
2018-11-14T00:15:37.656Z,6.92
2018-11-14T00:18:06.176Z,6.94
2018-11-14T00:20:34.678Z,6.94
2018-11-14T00:23:03.225Z,6.97
2018-11-14T00:25:31.713Z,6.97
2018-11-14T00:28:00.976Z,6.98
2018-11-14T00:30:29.086Z,7.06
2018-11-14T00:32:57.869Z,7.20
2018-11-14T00:35:26.591Z,7.34
2018-11-14T00:37:55.057Z,7.41
2018-11-14T00:40:23.912Z,7.46
2018-11-14T00:42:52.413Z,7.51
2018-11-14T00:45:22.111Z,7.55
2018-11-14T00:47:51.041Z,7.60
2018-11-14T00:50:20.151Z,7.63
2018-11-14T00:52:49.249Z,7.64
2018-11-14T00:55:20.114Z,7.66
2018-11-14T00:57:49.920Z,7.67
2018-11-14T01:00:20.625Z,7.67
2018-11-14T01:02:49.110Z,7.67
2018-11-14T01:05:18.233Z,7.68
2018-11-14T01:07:46.931Z,7.68
2018-11-14T01:10:16.917Z,7.67
2018-11-14T01:12:46.269Z,7.67
2018-11-14T01:15:16.625Z,7.68
2018-11-14T01:17:45.224Z,7.66
2018-11-14T01:20:15.579Z,7.66
2018-11-14T01:22:44.586Z,7.64
2018-11-14T01:25:14.182Z,7.59
2018-11-14T01:27:43.318Z,7.55
2018-11-14T01:30:16.675Z,7.50
2018-11-14T01:32:46.206Z,7.41
2018-11-14T01:35:15.286Z,7.34
2018-11-14T01:37:43.818Z,7.24
2018-11-14T01:40:15.782Z,7.16
2018-11-14T01:42:45.773Z,7.06
2018-11-14T01:45:14.932Z,6.98
2018-11-14T01:47:43.536Z,6.92
2018-11-14T01:50:12.256Z,6.87
2018-11-14T01:52:40.961Z,6.85
2018-11-14T01:55:11.566Z,6.87
2018-11-14T01:57:40.210Z,6.92
2018-11-14T02:00:12.968Z,6.98
2018-11-14T02:02:41.819Z,7.03
2018-11-14T02:05:11.242Z,7.12
2018-11-14T02:07:39.951Z,7.18
2018-11-14T02:10:11.056Z,7.24
2018-11-14T02:12:40.266Z,7.28
2018-11-14T02:15:12.210Z,7.33
2018-11-14T02:17:41.153Z,7.38
2018-11-14T02:20:10.215Z,7.43
2018-11-14T02:22:40.164Z,7.48
2018-11-14T02:25:09.756Z,7.52
2018-11-14T02:27:38.333Z,7.57
2018-11-14T02:30:10.680Z,7.62
2018-11-14T02:32:39.268Z,7.63
2018-11-14T02:35:08.232Z,7.63
2018-11-14T02:37:36.739Z,7.65
2018-11-14T02:40:09.802Z,7.64
2018-11-14T02:42:38.453Z,7.64
2018-11-14T02:45:08.318Z,7.67
2018-11-14T02:47:37.023Z,7.66
2018-11-14T02:50:06.306Z,7.63
2018-11-14T02:52:34.870Z,7.61
2018-11-14T02:55:03.399Z,7.59
2018-11-14T02:57:32.140Z,7.59
2018-11-14T03:00:00.693Z,7.58
2018-11-14T03:02:29.377Z,7.57
2018-11-14T03:04:57.897Z,7.56
2018-11-14T03:07:26.474Z,7.55
2018-11-14T03:09:55.039Z,7.56
2018-11-14T03:12:23.564Z,7.57
2018-11-14T03:14:51.974Z,7.59
2018-11-14T03:17:20.562Z,7.57
2018-11-14T03:19:49.046Z,7.55
2018-11-14T03:22:18.543Z,7.55
2018-11-14T03:24:47.191Z,7.55
2018-11-14T03:27:15.918Z,7.54
2018-11-14T03:29:44.672Z,7.52
2018-11-14T03:32:13.358Z,7.52
2018-11-14T03:34:42.111Z,7.51
2018-11-14T03:37:10.589Z,7.49
2018-11-14T03:39:39.073Z,7.45
2018-11-14T03:42:07.650Z,7.41
2018-11-14T03:44:36.108Z,7.37
2018-11-14T03:47:04.920Z,7.31
2018-11-14T03:49:33.415Z,7.26
2018-11-14T03:52:01.828Z,7.24
2018-11-14T03:54:30.473Z,7.19
2018-11-14T03:56:59.947Z,7.18
2018-11-14T03:59:28.389Z,7.19
2018-11-14T04:01:56.914Z,7.19
2018-11-14T04:04:25.624Z,7.18
2018-11-14T04:06:54.177Z,7.20
2018-11-14T04:09:22.701Z,7.19
2018-11-14T04:11:51.268Z,7.21
2018-11-14T04:14:19.813Z,7.21
2018-11-14T04:16:48.275Z,7.21
2018-11-14T04:19:16.965Z,7.23
2018-11-14T04:21:45.888Z,7.26
2018-11-14T04:24:14.732Z,7.26
2018-11-14T04:26:43.388Z,7.24
2018-11-14T04:29:11.948Z,7.19
2018-11-14T04:31:40.704Z,7.13
2018-11-14T04:34:09.114Z,7.11
2018-11-14T04:36:37.684Z,7.10
2018-11-14T04:39:08.827Z,7.10
2018-11-14T04:41:37.381Z,7.09
2018-11-14T04:44:06.879Z,7.05
2018-11-14T04:46:35.477Z,6.98
2018-11-14T04:49:04.222Z,6.94
2018-11-14T04:51:33.046Z,6.88
2018-11-14T04:54:02.277Z,6.82
2018-11-14T04:56:30.872Z,6.82
2018-11-14T04:59:00.361Z,6.80
2018-11-14T05:01:29.006Z,6.82
2018-11-14T05:03:57.593Z,6.82
2018-11-14T05:06:26.298Z,6.77
2018-11-14T05:08:54.888Z,6.79
2018-11-14T05:11:23.479Z,6.80
2018-11-14T05:13:52.102Z,6.84
2018-11-14T05:16:20.595Z,6.90
2018-11-14T05:18:49.194Z,6.97
2018-11-14T05:21:17.761Z,6.99
2018-11-14T05:23:46.345Z,7.06
2018-11-14T05:26:15.073Z,7.10
2018-11-14T05:28:43.646Z,7.14
2018-11-14T05:31:12.349Z,7.18
2018-11-14T05:33:40.952Z,7.20
2018-11-14T05:36:09.738Z,7.20
2018-11-14T05:38:38.450Z,7.20
2018-11-14T05:41:07.103Z,7.21
2018-11-14T05:43:35.635Z,7.22
2018-11-14T05:46:04.146Z,7.20
2018-11-14T05:48:32.614Z,7.20
2018-11-14T05:51:01.242Z,7.17
2018-11-14T05:53:29.851Z,7.19
2018-11-14T05:55:58.586Z,7.16
2018-11-14T05:58:27.102Z,7.12
2018-11-14T06:00:55.801Z,7.07
2018-11-14T06:03:24.419Z,7.00
2018-11-14T06:05:53.015Z,6.94
2018-11-14T06:08:21.680Z,6.88
2018-11-14T06:10:50.581Z,6.81
2018-11-14T06:13:19.157Z,6.75
2018-11-14T06:15:47.677Z,6.72
2018-11-14T06:18:17.288Z,6.71
2018-11-14T06:20:46.908Z,6.71
2018-11-14T06:23:15.487Z,6.73
2018-11-14T06:25:44.209Z,6.77
2018-11-14T06:28:14.807Z,6.85
2018-11-14T06:30:43.565Z,6.93
2018-11-14T06:33:12.652Z,6.99
2018-11-14T06:35:41.128Z,7.08
2018-11-14T06:38:09.877Z,7.16
2018-11-14T06:40:38.455Z,7.24
2018-11-14T06:43:07.081Z,7.29
2018-11-14T06:45:36.039Z,7.34
2018-11-14T06:48:05.220Z,7.38
2018-11-14T06:50:33.900Z,7.42
2018-11-14T06:53:04.834Z,7.44
2018-11-14T06:55:33.746Z,7.46
2018-11-14T06:58:02.454Z,7.47
2018-11-14T07:00:32.194Z,7.51
2018-11-14T07:03:01.898Z,7.55
2018-11-14T07:05:30.776Z,7.57
2018-11-14T07:07:59.556Z,7.60
2018-11-14T07:10:29.811Z,7.66
2018-11-14T07:13:03.582Z,7.71
2018-11-14T07:15:32.228Z,7.76
2018-11-14T07:18:00.925Z,7.80
2018-11-14T07:20:31.011Z,7.83
2018-11-14T07:22:59.602Z,7.86
2018-11-14T07:25:28.157Z,7.87
2018-11-14T07:27:57.054Z,7.88
2018-11-14T07:30:27.976Z,7.89
2018-11-14T07:32:59.132Z,7.90
2018-11-14T07:35:28.239Z,7.91
2018-11-14T07:39:02.513Z,7.94
2018-11-14T07:41:38.111Z,7.98
2018-11-14T07:44:07.163Z,7.99
2018-11-14T07:46:36.250Z,8.04
2018-11-14T07:49:05.342Z,8.09
2018-11-14T07:51:34.030Z,8.14
2018-11-14T07:54:02.790Z,8.14
2018-11-14T07:56:31.397Z,8.15
2018-11-14T07:59:00.107Z,8.17
2018-11-14T08:01:28.756Z,8.20
2018-11-14T08:03:57.562Z,8.21
2018-11-14T08:06:26.168Z,8.22
2018-11-14T08:08:54.695Z,8.23
2018-11-14T08:11:23.439Z,8.22
2018-11-14T08:13:52.086Z,8.22
2018-11-14T08:16:20.519Z,8.26
2018-11-14T08:18:49.204Z,8.28
2018-11-14T08:21:17.784Z,8.28
2018-11-14T08:23:46.430Z,8.32
2018-11-14T08:26:14.953Z,8.42
2018-11-14T08:28:44.738Z,8.50
2018-11-14T08:31:14.535Z,8.63
2018-11-14T08:33:43.034Z,8.75
2018-11-14T08:36:11.536Z,8.89
2018-11-14T08:38:40.141Z,9.00
2018-11-14T08:41:08.816Z,9.07
2018-11-14T08:43:37.615Z,9.11
2018-11-14T08:46:06.901Z,9.20
2018-11-14T08:48:35.480Z,9.24
2018-11-14T08:51:04.087Z,9.25
2018-11-14T08:53:33.201Z,9.26
2018-11-14T08:56:03.801Z,9.33
2018-11-14T08:58:33.401Z,9.37
2018-11-14T09:01:01.942Z,9.40
2018-11-14T09:03:30.644Z,9.44
2018-11-14T09:05:59.304Z,9.48
2018-11-14T09:08:28.002Z,9.51
2018-11-14T09:10:56.640Z,9.56
2018-11-14T09:13:25.161Z,9.63
2018-11-14T09:15:53.756Z,9.69
2018-11-14T09:18:22.426Z,9.73
2018-11-14T09:20:50.981Z,9.73
2018-11-14T09:23:19.445Z,9.77
2018-11-14T09:25:47.913Z,9.77
2018-11-14T09:28:16.798Z,9.81
2018-11-14T09:30:45.318Z,9.87
2018-11-14T09:33:13.895Z,9.86
2018-11-14T09:35:42.433Z,9.92
2018-11-14T09:38:10.978Z,9.98
2018-11-14T09:40:39.777Z,10.02
2018-11-14T09:43:08.317Z,10.09
2018-11-14T09:45:36.882Z,10.12
2018-11-14T09:48:05.521Z,10.11
2018-11-14T09:50:34.027Z,10.17
2018-11-14T09:53:04.138Z,10.17
2018-11-14T09:55:32.548Z,10.13
2018-11-14T09:58:01.219Z,10.13
2018-11-14T10:00:31.910Z,10.19
2018-11-14T10:03:04.514Z,10.18
2018-11-14T10:05:33.105Z,10.19
2018-11-14T10:08:01.825Z,10.24
2018-11-14T10:10:30.331Z,10.31
2018-11-14T10:12:59.103Z,10.41
2018-11-14T10:15:27.696Z,10.48
2018-11-14T10:17:56.206Z,10.58
2018-11-14T10:20:25.370Z,10.64
2018-11-14T10:22:54.029Z,10.70
2018-11-14T10:25:46.853Z,10.77
2018-11-14T10:28:15.559Z,10.88
2018-11-14T10:30:44.202Z,10.93
2018-11-14T10:33:12.762Z,11.00
2018-11-14T10:35:41.375Z,11.02
2018-11-14T10:38:09.974Z,11.04
2018-11-14T10:40:41.870Z,11.10
2018-11-14T10:43:10.532Z,11.09
2018-11-14T10:45:39.045Z,11.06
2018-11-14T10:48:07.646Z,11.09
2018-11-14T10:50:36.317Z,11.14
2018-11-14T10:53:05.251Z,11.29
2018-11-14T10:55:33.797Z,11.52
2018-11-14T10:58:02.399Z,11.64
2018-11-14T11:00:36.369Z,11.63
2018-11-14T11:03:12.987Z,11.49
2018-11-14T11:05:47.010Z,11.31
2018-11-14T11:08:22.775Z,11.13
2018-11-14T11:10:58.009Z,11.06
2018-11-14T11:13:32.003Z,11.03
2018-11-14T11:16:05.853Z,10.99
2018-11-14T11:18:35.166Z,10.96
2018-11-14T11:21:03.763Z,10.90
2018-11-14T11:23:32.356Z,10.84
2018-11-14T11:26:00.876Z,10.79
2018-11-14T11:28:29.702Z,10.75
2018-11-14T11:30:58.342Z,10.76
2018-11-14T11:33:26.759Z,10.77
2018-11-14T11:35:55.452Z,10.77
2018-11-14T11:38:24.179Z,10.75
2018-11-14T11:40:53.575Z,10.75
2018-11-14T11:43:22.400Z,10.75
2018-11-14T11:45:51.234Z,10.77
2018-11-14T11:48:20.360Z,10.76
2018-11-14T11:50:49.924Z,10.73
2018-11-14T11:53:18.683Z,10.73
2018-11-14T11:55:47.354Z,10.69
2018-11-14T11:58:16.128Z,10.65
2018-11-14T12:00:45.233Z,10.74
2018-11-14T12:03:14.025Z,11.35
2018-11-14T12:05:42.667Z,11.80
2018-11-14T12:08:11.389Z,12.24
2018-11-14T12:10:40.937Z,12.62
2018-11-14T12:13:09.616Z,13.00
2018-11-14T12:15:38.138Z,13.25
2018-11-14T12:18:07.215Z,13.57
2018-11-14T12:20:35.757Z,13.72
2018-11-14T12:23:04.193Z,13.74
2018-11-14T12:25:33.703Z,13.78
2018-11-14T12:28:02.413Z,13.92
2018-11-14T12:30:31.170Z,13.77
2018-11-14T12:33:00.129Z,13.46
2018-11-14T12:35:28.722Z,13.14
2018-11-14T12:37:57.406Z,12.85
2018-11-14T12:40:25.990Z,12.55
2018-11-14T12:42:55.264Z,12.28
2018-11-14T12:45:23.712Z,12.02
2018-11-14T12:47:52.252Z,11.73
2018-11-14T12:50:20.734Z,11.61
2018-11-14T12:52:49.482Z,11.57
2018-11-14T12:55:18.888Z,11.31
2018-11-14T12:57:47.630Z,11.03
2018-11-14T13:00:18.450Z,10.78
2018-11-14T13:02:47.764Z,10.53
2018-11-14T13:05:16.748Z,10.25
2018-11-14T13:07:45.964Z,10.02
2018-11-14T13:10:15.527Z,9.86
2018-11-14T13:12:45.516Z,9.77
2018-11-14T13:15:15.014Z,9.74
2018-11-14T13:17:44.913Z,9.73
2018-11-14T13:20:16.372Z,9.72
2018-11-14T13:22:45.622Z,9.72
2018-11-14T13:25:14.867Z,9.73
2018-11-14T13:27:44.655Z,9.77
2018-11-14T13:30:15.598Z,9.82
2018-11-14T13:32:45.144Z,9.83
2018-11-14T13:35:15.116Z,9.89
2018-11-14T13:37:44.661Z,10.01
2018-11-14T13:40:14.445Z,10.15
2018-11-14T13:42:43.404Z,10.78
2018-11-14T13:45:13.402Z,10.93
2018-11-14T13:47:42.583Z,11.54
2018-11-14T13:50:17.371Z,11.80
2018-11-14T13:52:46.325Z,11.75
2018-11-14T13:55:16.793Z,11.62
2018-11-14T13:57:46.760Z,11.34
2018-11-14T14:00:17.247Z,11.06
2018-11-14T14:02:46.379Z,10.84
2018-11-14T14:05:16.642Z,10.64
2018-11-14T14:07:45.528Z,10.47
2018-11-14T14:10:15.216Z,10.33
2018-11-14T14:12:44.905Z,10.21
2018-11-14T14:15:15.395Z,10.09
2018-11-14T14:17:44.960Z,9.99
2018-11-14T14:20:14.226Z,9.95
2018-11-14T14:22:42.967Z,9.91
2018-11-14T14:25:13.140Z,9.89
2018-11-14T14:27:41.750Z,9.89
2018-11-14T14:30:13.130Z,9.90
2018-11-14T14:32:42.860Z,9.91
2018-11-14T14:35:12.433Z,9.91
2018-11-14T14:37:41.303Z,9.87
2018-11-14T14:40:13.612Z,9.82
2018-11-14T14:42:42.397Z,9.78
2018-11-14T14:45:13.320Z,9.74
2018-11-14T14:47:42.199Z,9.71
2018-11-14T14:50:13.135Z,9.68
2018-11-14T14:52:42.248Z,9.65
2018-11-14T14:55:13.214Z,9.62
2018-11-14T14:57:42.264Z,9.60
2018-11-14T15:00:14.962Z,9.57
2018-11-14T15:02:44.880Z,9.54
2018-11-14T15:05:14.485Z,9.52
2018-11-14T15:07:43.434Z,9.48
2018-11-14T15:10:16.793Z,9.44
2018-11-14T15:12:47.234Z,9.39
2018-11-14T15:15:16.604Z,9.36
2018-11-14T15:17:45.455Z,9.34
2018-11-14T15:20:16.714Z,9.33
2018-11-14T15:22:45.742Z,9.32
2018-11-14T15:25:15.499Z,9.30
2018-11-14T15:27:44.743Z,9.28
2018-11-14T15:30:17.366Z,9.27
2018-11-14T15:32:46.260Z,9.26
2018-11-14T15:35:15.388Z,9.24
2018-11-14T15:37:44.722Z,9.23
2018-11-14T15:40:15.632Z,9.22
2018-11-14T15:42:45.263Z,9.21
2018-11-14T15:45:22.872Z,9.21
2018-11-14T15:47:51.363Z,9.19
2018-11-14T15:50:21.324Z,9.20
2018-11-14T15:52:51.009Z,9.21
2018-11-14T15:55:20.443Z,9.21
2018-11-14T15:57:48.982Z,9.21
2018-11-14T16:00:23.194Z,9.22
2018-11-14T16:02:51.949Z,9.22
2018-11-14T16:05:21.940Z,9.20
2018-11-14T16:07:51.731Z,9.20
2018-11-14T16:10:21.671Z,9.19
2018-11-14T16:12:50.285Z,9.18
2018-11-14T16:15:20.590Z,9.17
2018-11-14T16:17:49.128Z,9.16
2018-11-14T16:20:19.172Z,9.14
2018-11-14T16:22:47.950Z,9.11
2018-11-14T16:25:17.871Z,9.07
2018-11-14T16:27:47.608Z,9.04
2018-11-14T16:30:22.338Z,9.02
2018-11-14T16:32:52.021Z,8.99
2018-11-14T16:35:20.948Z,8.96
2018-11-14T16:37:49.624Z,8.92
2018-11-14T16:40:23.031Z,8.89
2018-11-14T16:42:52.429Z,8.87
2018-11-14T16:45:21.023Z,8.84
2018-11-14T16:47:49.911Z,8.81
2018-11-14T16:50:19.476Z,8.78
2018-11-14T16:52:48.282Z,8.78
2018-11-14T16:55:18.051Z,8.74
2018-11-14T16:57:47.622Z,8.74
2018-11-14T17:00:20.298Z,8.73
2018-11-14T17:02:48.830Z,8.74
2018-11-14T17:05:17.820Z,8.75
2018-11-14T17:07:46.515Z,8.77
2018-11-14T17:10:17.452Z,8.77
2018-11-14T17:12:48.020Z,8.75
2018-11-14T17:15:18.099Z,8.74
2018-11-14T17:17:46.653Z,8.72
2018-11-14T17:20:16.345Z,8.70
2018-11-14T17:22:46.369Z,8.70
2018-11-14T17:25:16.637Z,8.71
2018-11-14T17:27:45.808Z,8.70
2018-11-14T17:30:22.376Z,8.69
2018-11-14T17:32:51.486Z,8.70
2018-11-14T17:35:20.308Z,8.71
2018-11-14T17:37:48.831Z,8.70
2018-11-14T17:40:24.737Z,8.70
2018-11-14T17:42:53.823Z,8.70
2018-11-14T17:45:24.523Z,8.68
2018-11-14T17:47:53.822Z,8.68
2018-11-14T17:50:27.127Z,8.67
2018-11-14T17:52:56.312Z,8.67
2018-11-14T17:55:25.346Z,8.66
2018-11-14T17:57:54.401Z,8.64
2018-11-14T18:00:24.258Z,8.65
2018-11-14T18:02:53.077Z,8.65
2018-11-14T18:05:22.923Z,8.63
2018-11-14T18:07:52.098Z,8.64
2018-11-14T18:10:24.304Z,8.65
2018-11-14T18:12:53.843Z,8.65
2018-11-14T18:15:22.465Z,8.65
2018-11-14T18:17:52.090Z,8.70
2018-11-14T18:20:24.942Z,8.83
2018-11-14T18:22:54.281Z,8.90
2018-11-14T18:25:22.983Z,8.96
2018-11-14T18:27:52.180Z,9.04
2018-11-14T18:30:23.817Z,8.97
2018-11-14T18:32:53.021Z,8.92
2018-11-14T18:35:22.258Z,8.98
2018-11-14T18:37:51.798Z,9.02
2018-11-14T18:40:22.700Z,8.98
2018-11-14T18:42:51.401Z,8.75
2018-11-14T18:48:51.108Z,8.50
2018-11-14T18:51:19.655Z,8.68
2018-11-14T18:53:48.181Z,8.73
2018-11-14T18:56:17.596Z,8.77
2018-11-14T18:58:46.168Z,8.64
2018-11-14T19:01:15.113Z,8.54
2018-11-14T19:03:43.811Z,8.47
2018-11-14T19:06:12.315Z,8.40
2018-11-14T19:08:41.251Z,8.34
2018-11-14T19:11:09.722Z,8.24
2018-11-14T19:13:38.318Z,8.22
2018-11-14T19:16:07.202Z,8.23
2018-11-14T19:18:35.808Z,8.23
2018-11-14T19:21:05.295Z,8.26
2018-11-14T19:23:33.761Z,8.28
2018-11-14T19:26:02.565Z,8.29
2018-11-14T19:28:31.203Z,8.30
2018-11-14T19:30:59.765Z,8.31
2018-11-14T19:33:28.294Z,8.30
2018-11-14T19:35:56.957Z,8.25
2018-11-14T19:38:25.618Z,8.23
2018-11-14T19:40:54.119Z,8.21
2018-11-14T19:43:22.754Z,8.23
2018-11-14T19:45:51.353Z,8.24
2018-11-14T19:48:19.834Z,8.28
2018-11-14T19:50:48.455Z,8.30
2018-11-14T19:53:17.112Z,8.27
2018-11-14T19:55:45.954Z,8.24
2018-11-14T19:58:14.466Z,8.23
2018-11-14T20:00:43.242Z,8.22
2018-11-14T20:03:11.798Z,8.20
2018-11-14T20:05:40.902Z,8.17
2018-11-14T20:08:09.417Z,8.15
2018-11-14T20:10:38.903Z,8.15
2018-11-14T20:13:07.689Z,8.12
2018-11-14T20:15:37.176Z,8.11
2018-11-14T20:18:06.372Z,8.09
2018-11-14T20:20:36.343Z,8.05
2018-11-14T20:23:05.319Z,8.02
2018-11-14T20:25:34.120Z,7.98
2018-11-14T20:28:02.665Z,7.94
2018-11-14T20:30:35.920Z,7.95
2018-11-14T20:33:06.482Z,7.95
2018-11-14T20:35:35.196Z,7.93
2018-11-14T20:38:03.985Z,7.93
2018-11-14T20:40:32.514Z,7.93
2018-11-14T20:43:01.275Z,7.95
2018-11-14T20:45:31.317Z,7.96
2018-11-14T20:48:00.183Z,7.95
2018-11-14T20:50:29.428Z,7.94
2018-11-14T20:53:00.712Z,7.92
2018-11-14T20:55:29.761Z,7.92
2018-11-14T20:57:58.443Z,7.93
2018-11-14T21:00:29.239Z,8.05
2018-11-14T21:02:59.203Z,8.02
2018-11-14T21:05:28.373Z,7.97
2018-11-14T21:07:56.855Z,7.94
2018-11-14T21:10:27.743Z,7.91
2018-11-14T21:12:56.564Z,7.89
2018-11-14T21:15:35.144Z,7.88
2018-11-14T21:18:04.347Z,7.84
2018-11-14T21:20:32.914Z,7.80
2018-11-14T21:23:03.743Z,7.75
2018-11-14T21:25:32.229Z,7.72
2018-11-14T21:28:01.126Z,7.70
2018-11-14T21:30:30.656Z,7.66
2018-11-14T21:32:59.235Z,7.63
2018-11-14T21:35:30.396Z,7.65
2018-11-14T21:38:01.001Z,7.58
2018-11-14T21:40:29.569Z,7.53
2018-11-14T21:42:58.271Z,7.63
2018-11-14T21:45:27.678Z,7.60
2018-11-14T21:48:01.723Z,7.50
2018-11-14T21:50:31.095Z,7.42
2018-11-14T21:52:59.760Z,7.33
2018-11-14T21:55:28.274Z,7.29
2018-11-14T21:57:56.749Z,7.26
2018-11-14T22:00:30.583Z,7.34
2018-11-14T22:02:59.315Z,7.35
2018-11-14T22:05:28.089Z,7.53
2018-11-14T22:07:57.091Z,7.48
2018-11-14T22:10:26.317Z,7.25
2018-11-14T22:12:54.940Z,7.11
2018-11-14T22:15:24.658Z,7.09
2018-11-14T22:17:53.451Z,7.08
2018-11-14T22:20:23.520Z,7.09
2018-11-14T22:22:52.151Z,7.03
2018-11-14T22:25:21.903Z,7.00
2018-11-14T22:27:50.896Z,6.99
2018-11-14T22:30:21.938Z,7.00
2018-11-14T22:32:50.682Z,7.01
2018-11-14T22:35:20.471Z,7.11
2018-11-14T22:37:50.387Z,7.17
2018-11-14T22:40:20.442Z,7.13
2018-11-14T22:42:49.072Z,7.03
2018-11-14T22:45:20.169Z,6.79
2018-11-14T22:47:48.989Z,6.58
2018-11-14T22:50:19.142Z,6.40
2018-11-14T22:52:48.082Z,6.29
2018-11-14T22:55:17.797Z,6.21
2018-11-14T22:57:47.334Z,6.21
2018-11-14T23:00:53.921Z,6.22
2018-11-14T23:03:22.412Z,6.24
2018-11-14T23:05:50.977Z,6.25
2018-11-14T23:08:19.584Z,6.20
2018-11-14T23:10:48.046Z,6.17
2018-11-14T23:13:16.506Z,6.21
2018-11-14T23:15:47.096Z,6.23
2018-11-14T23:18:15.746Z,6.16
2018-11-14T23:20:44.618Z,6.19
2018-11-14T23:23:14.203Z,6.20
2018-11-14T23:25:42.793Z,6.20
2018-11-14T23:28:11.569Z,6.15
2018-11-14T23:30:40.039Z,6.05
2018-11-14T23:33:08.518Z,6.00
2018-11-14T23:35:37.076Z,5.96
2018-11-14T23:38:06.461Z,5.97
2018-11-14T23:40:35.222Z,5.92
2018-11-14T23:43:04.304Z,5.89
2018-11-14T23:45:33.067Z,5.95
2018-11-14T23:48:02.483Z,5.89
2018-11-14T23:50:32.238Z,5.73
2018-11-14T23:53:02.043Z,5.64
2018-11-14T23:55:31.327Z,5.35
2018-11-14T23:58:00.096Z,5.17
